sensor_id;sensor_type;location;lat;lon;timestamp;pressure;altitude;pressure_sealevel;temperature;humidity
50696;BME280;36665;51.786;21.594;2023-04-28T00:07:48;92382.61;;;0.84;58.24
50696;BME280;36665;51.786;21.594;2023-04-28T00:16:11;92329.23;;;0.69;57.98
50696;BME280;36665;51.786;21.594;2023-04-28T00:24:34;92315.49;;;0.65;58.09
50696;BME280;36665;51.786;21.594;2023-04-28T00:32:58;92312.27;;;0.65;57.82
50696;BME280;36665;51.786;21.594;2023-04-28T00:41:21;92283.11;;;0.58;58.14
50696;BME280;36665;51.786;21.594;2023-04-28T00:49:44;92206.56;;;0.35;58.02
50696;BME280;36665;51.786;21.594;2023-04-28T00:58:08;92151.16;;;0.21;57.81
50696;BME280;36665;51.786;21.594;2023-04-28T01:06:32;92141.86;;;0.18;57.98
50696;BME280;36665;51.786;21.594;2023-04-28T01:14:56;92128.09;;;0.15;58.08
50696;BME280;36665;51.786;21.594;2023-04-28T01:23:20;92090.16;;;0.04;57.82
50696;BME280;36665;51.786;21.594;2023-04-28T01:31:43;92048.48;;;-0.08;58.05
50696;BME280;36665;51.786;21.594;2023-04-28T01:40:07;92022.48;;;-0.16;57.81
50696;BME280;36665;51.786;21.594;2023-04-28T01:48:31;91990.92;;;-0.25;57.84
50696;BME280;36665;51.786;21.594;2023-04-28T01:56:54;91958.92;;;-0.32;57.80
50696;BME280;36665;51.786;21.594;2023-04-28T02:05:17;91950.92;;;-0.35;57.76
50696;BME280;36665;51.786;21.594;2023-04-28T02:13:42;91907.55;;;-0.45;57.84
50696;BME280;36665;51.786;21.594;2023-04-28T02:22:06;91889.43;;;-0.51;57.74
50696;BME280;36665;51.786;21.594;2023-04-28T02:30:29;91881.73;;;-0.52;57.82
50696;BME280;36665;51.786;21.594;2023-04-28T02:38:52;91849.73;;;-0.62;57.83
50696;BME280;36665;51.786;21.594;2023-04-28T02:47:15;91822.73;;;-0.70;57.81
50696;BME280;36665;51.786;21.594;2023-04-28T02:55:39;91821.75;;;-0.70;57.60
50696;BME280;36665;51.786;21.594;2023-04-28T03:04:02;91798.38;;;-0.76;57.67
50696;BME280;36665;51.786;21.594;2023-04-28T03:12:25;91763.27;;;-0.85;57.63
50696;BME280;36665;51.786;21.594;2023-04-28T03:20:49;91742.15;;;-0.91;57.67
50696;BME280;36665;51.786;21.594;2023-04-28T03:29:12;91729.83;;;-0.94;57.78
50696;BME280;36665;51.786;21.594;2023-04-28T03:37:35;91745.92;;;-0.89;57.70
50696;BME280;36665;51.786;21.594;2023-04-28T03:46:00;91800.60;;;-0.75;57.80
50696;BME280;36665;51.786;21.594;2023-04-28T03:54:23;91890.13;;;-0.51;58.06
50696;BME280;36665;51.786;21.594;2023-04-28T04:02:47;92466.90;;;1.13;58.36
50696;BME280;36665;51.786;21.594;2023-04-28T04:11:10;93183.89;;;3.11;58.84
50696;BME280;36665;51.786;21.594;2023-04-28T04:19:33;93730.40;;;4.59;59.29
50696;BME280;36665;51.786;21.594;2023-04-28T04:27:58;94113.14;;;5.63;59.64
50696;BME280;36665;51.786;21.594;2023-04-28T04:36:21;94495.31;;;6.65;59.93
50696;BME280;36665;51.786;21.594;2023-04-28T04:44:44;94673.96;;;7.12;60.08
50696;BME280;36665;51.786;21.594;2023-04-28T04:53:17;94575.30;;;6.85;60.04
50696;BME280;36665;51.786;21.594;2023-04-28T05:01:40;94378.69;;;6.32;60.22
50696;BME280;36665;51.786;21.594;2023-04-28T05:10:04;94236.20;;;5.92;59.98
50696;BME280;36665;51.786;21.594;2023-04-28T05:18:28;94210.86;;;5.86;59.84
50696;BME280;36665;51.786;21.594;2023-04-28T05:26:51;94256.63;;;5.97;60.00
50696;BME280;36665;51.786;21.594;2023-04-28T05:35:16;94491.63;;;6.61;60.13
50696;BME280;36665;51.786;21.594;2023-04-28T05:43:39;94894.20;;;7.68;60.34
50696;BME280;36665;51.786;21.594;2023-04-28T05:52:03;95205.48;;;8.51;60.57
50696;BME280;36665;51.786;21.594;2023-04-28T06:00:27;95487.98;;;9.24;60.60
50696;BME280;36665;51.786;21.594;2023-04-28T06:08:50;95797.85;;;10.05;60.86
50696;BME280;36665;51.786;21.594;2023-04-28T06:17:13;96082.77;;;10.78;61.04
50696;BME280;36665;51.786;21.594;2023-04-28T06:25:37;96359.95;;;11.49;61.23
50696;BME280;36665;51.786;21.594;2023-04-28T06:34:00;96608.66;;;12.11;61.45
50696;BME280;36665;51.786;21.594;2023-04-28T06:42:23;96781.88;;;12.56;61.53
50696;BME280;36665;51.786;21.594;2023-04-28T06:50:54;97035.96;;;13.19;61.80
50696;BME280;36665;51.786;21.594;2023-04-28T06:59:17;97214.85;;;13.64;61.80
50696;BME280;36665;51.786;21.594;2023-04-28T07:07:40;97308.95;;;13.86;61.84
50696;BME280;36665;51.786;21.594;2023-04-28T07:16:04;97453.82;;;14.21;61.91
50696;BME280;36665;51.786;21.594;2023-04-28T07:24:27;97615.55;;;14.61;62.31
50696;BME280;36665;51.786;21.594;2023-04-28T07:32:50;97601.01;;;14.57;62.13
50696;BME280;36665;51.786;21.594;2023-04-28T07:41:16;97425.41;;;14.13;61.84
50696;BME280;36665;51.786;21.594;2023-04-28T07:49:39;97285.90;;;13.77;62.00
50696;BME280;36665;51.786;21.594;2023-04-28T07:58:02;97308.48;;;13.83;61.85
50696;BME280;36665;51.786;21.594;2023-04-28T08:06:26;97468.67;;;14.22;62.02
50696;BME280;36665;51.786;21.594;2023-04-28T08:14:49;97535.39;;;14.39;62.11
50696;BME280;36665;51.786;21.594;2023-04-28T08:23:12;97678.48;;;14.74;62.09
50696;BME280;36665;51.786;21.594;2023-04-28T08:31:35;97693.73;;;14.76;61.90
50696;BME280;36665;51.786;21.594;2023-04-28T08:39:58;97365.02;;;13.95;61.94
50696;BME280;36665;51.786;21.594;2023-04-28T08:48:25;97433.10;;;14.13;61.79
50696;BME280;36665;51.786;21.594;2023-04-28T08:56:51;97215.85;;;13.58;61.64
50696;BME280;36665;51.786;21.594;2023-04-28T09:05:14;97034.66;;;13.13;61.55
50696;BME280;36665;51.786;21.594;2023-04-28T09:13:38;96903.84;;;12.78;61.54
50696;BME280;36665;51.786;21.594;2023-04-28T09:22:03;97251.48;;;13.67;61.69
50696;BME280;36665;51.786;21.594;2023-04-28T09:30:47;97498.85;;;14.29;61.71
50696;BME280;36665;51.786;21.594;2023-04-28T09:39:10;97453.31;;;14.18;61.75
50696;BME280;36665;51.786;21.594;2023-04-28T09:47:36;97452.36;;;14.17;61.73
50696;BME280;36665;51.786;21.594;2023-04-28T09:56:02;97632.05;;;14.62;61.70
50696;BME280;36665;51.786;21.594;2023-04-28T10:04:27;97719.54;;;14.84;61.69
50696;BME280;36665;51.786;21.594;2023-04-28T10:12:55;97547.84;;;14.41;61.57
50696;BME280;36665;51.786;21.594;2023-04-28T10:21:20;97320.69;;;13.84;61.58
50696;BME280;36665;51.786;21.594;2023-04-28T10:29:45;97164.27;;;13.44;61.43
50696;BME280;36665;51.786;21.594;2023-04-28T10:38:17;97196.67;;;13.53;61.26
50696;BME280;36665;51.786;21.594;2023-04-28T10:47:01;97495.99;;;14.29;61.33
50696;BME280;36665;51.786;21.594;2023-04-28T10:55:27;97635.16;;;14.64;61.43
50696;BME280;36665;51.786;21.594;2023-04-28T11:12:25;97343.05;;;13.90;61.27
50696;BME280;36665;51.786;21.594;2023-04-28T11:20:54;97524.96;;;14.35;61.36
50696;BME280;36665;51.786;21.594;2023-04-28T11:38:04;97733.02;;;14.88;61.27
50696;BME280;36665;51.786;21.594;2023-04-28T11:46:27;97788.82;;;15.01;61.35
50696;BME280;36665;51.786;21.594;2023-04-28T11:54:54;97838.62;;;15.14;61.07
50696;BME280;36665;51.786;21.594;2023-04-28T12:03:18;97878.09;;;15.24;61.32
50696;BME280;36665;51.786;21.594;2023-04-28T12:11:55;97779.77;;;15.01;61.14
50696;BME280;36665;51.786;21.594;2023-04-28T12:20:35;97465.76;;;14.22;60.92
50696;BME280;36665;51.786;21.594;2023-04-28T12:28:59;97302.19;;;13.81;60.77
50696;BME280;36665;51.786;21.594;2023-04-28T12:37:22;97207.60;;;13.58;60.64
50696;BME280;36665;51.786;21.594;2023-04-28T12:45:45;97037.98;;;13.15;60.66
50696;BME280;36665;51.786;21.594;2023-04-28T12:54:08;97041.85;;;13.17;60.45
50696;BME280;36665;51.786;21.594;2023-04-28T13:02:31;97137.60;;;13.41;60.65
50696;BME280;36665;51.786;21.594;2023-04-28T13:10:54;97279.52;;;13.77;60.51
50696;BME280;36665;51.786;21.594;2023-04-28T13:19:17;97507.66;;;14.34;60.59
50696;BME280;36665;51.786;21.594;2023-04-28T13:27:40;97664.55;;;14.74;60.70
50696;BME280;36665;51.786;21.594;2023-04-28T13:36:05;97754.02;;;14.96;60.58
50696;BME280;36665;51.786;21.594;2023-04-28T13:44:30;97822.40;;;15.14;60.75
50696;BME280;36665;51.786;21.594;2023-04-28T13:52:53;97890.31;;;15.30;60.59
50696;BME280;36665;51.786;21.594;2023-04-28T14:01:16;97938.89;;;15.42;60.52
50696;BME280;36665;51.786;21.594;2023-04-28T14:09:39;97909.16;;;15.36;60.44
50696;BME280;36665;51.786;21.594;2023-04-28T14:18:02;97877.05;;;15.27;60.59
50696;BME280;36665;51.786;21.594;2023-04-28T14:26:26;97810.98;;;15.10;60.46
50696;BME280;36665;51.786;21.594;2023-04-28T14:34:49;97747.77;;;14.95;60.22
50696;BME280;36665;51.786;21.594;2023-04-28T14:43:12;97563.46;;;14.49;60.16
50696;BME280;36665;51.786;21.594;2023-04-28T14:51:36;97368.88;;;14.01;60.05
50696;BME280;36665;51.786;21.594;2023-04-28T14:59:59;97304.23;;;13.84;59.96
50696;BME280;36665;51.786;21.594;2023-04-28T15:08:23;97286.14;;;13.81;59.82
50696;BME280;36665;51.786;21.594;2023-04-28T15:16:46;97258.53;;;13.74;59.76
50696;BME280;36665;51.786;21.594;2023-04-28T15:25:10;97317.64;;;13.89;59.73
50696;BME280;36665;51.786;21.594;2023-04-28T15:33:33;97317.08;;;13.89;59.89
50696;BME280;36665;51.786;21.594;2023-04-28T15:41:56;97229.83;;;13.69;59.59
50696;BME280;36665;51.786;21.594;2023-04-28T15:50:20;97136.91;;;13.45;59.45
50696;BME280;36665;51.786;21.594;2023-04-28T15:58:43;97082.35;;;13.32;59.57
50696;BME280;36665;51.786;21.594;2023-04-28T16:07:07;97037.45;;;13.21;59.32
50696;BME280;36665;51.786;21.594;2023-04-28T16:15:31;97001.26;;;13.11;59.27
50696;BME280;36665;51.786;21.594;2023-04-28T16:23:55;96905.42;;;12.87;59.31
50696;BME280;36665;51.786;21.594;2023-04-28T16:32:19;96784.94;;;12.57;59.13
50696;BME280;36665;51.786;21.594;2023-04-28T16:40:43;96683.56;;;12.31;58.84
50696;BME280;36665;51.786;21.594;2023-04-28T16:49:06;96586.58;;;12.06;59.00
50696;BME280;36665;51.786;21.594;2023-04-28T16:57:30;96469.35;;;11.76;58.97
50696;BME280;36665;51.786;21.594;2023-04-28T17:05:54;96334.52;;;11.42;58.70
50696;BME280;36665;51.786;21.594;2023-04-28T17:14:17;96187.73;;;11.04;58.55
50696;BME280;36665;51.786;21.594;2023-04-28T17:22:41;96044.01;;;10.68;58.46
50696;BME280;36665;51.786;21.594;2023-04-28T17:31:05;95896.88;;;10.29;58.15
50696;BME280;36665;51.786;21.594;2023-04-28T17:39:28;95750.63;;;9.92;58.21
50696;BME280;36665;51.786;21.594;2023-04-28T17:47:51;95616.79;;;9.57;58.14
50696;BME280;36665;51.786;21.594;2023-04-28T17:56:15;95480.56;;;9.20;57.94
50696;BME280;36665;51.786;21.594;2023-04-28T18:04:38;95353.84;;;8.87;57.82
50696;BME280;36665;51.786;21.594;2023-04-28T18:13:01;95217.61;;;8.52;57.77
50696;BME280;36665;51.786;21.594;2023-04-28T18:21:25;95081.11;;;8.16;57.66
50696;BME280;36665;51.786;21.594;2023-04-28T18:29:50;94948.30;;;7.81;57.55
50696;BME280;36665;51.786;21.594;2023-04-28T18:38:13;94824.39;;;7.49;57.45
50696;BME280;36665;51.786;21.594;2023-04-28T18:46:37;94734.50;;;7.25;57.39
50696;BME280;36665;51.786;21.594;2023-04-28T18:55:00;94712.87;;;7.20;57.17
50696;BME280;36665;51.786;21.594;2023-04-28T19:03:23;94725.58;;;7.24;57.33
50696;BME280;36665;51.786;21.594;2023-04-28T19:11:46;94708.54;;;7.20;57.24
50696;BME280;36665;51.786;21.594;2023-04-28T19:20:10;94680.08;;;7.12;57.10
50696;BME280;36665;51.786;21.594;2023-04-28T19:28:35;94654.04;;;7.05;57.14
50696;BME280;36665;51.786;21.594;2023-04-28T19:36:59;94607.43;;;6.94;57.22
50696;BME280;36665;51.786;21.594;2023-04-28T19:45:22;94545.48;;;6.77;56.91
50696;BME280;36665;51.786;21.594;2023-04-28T19:53:46;94483.09;;;6.61;56.94
50696;BME280;36665;51.786;21.594;2023-04-28T20:02:10;94432.73;;;6.48;56.85
50696;BME280;36665;51.786;21.594;2023-04-28T20:10:33;94384.53;;;6.35;56.84
50696;BME280;36665;51.786;21.594;2023-04-28T20:18:56;94350.95;;;6.26;56.78
50696;BME280;36665;51.786;21.594;2023-04-28T20:27:19;94323.44;;;6.18;56.65
50696;BME280;36665;51.786;21.594;2023-04-28T20:35:43;94285.61;;;6.09;56.66
50696;BME280;36665;51.786;21.594;2023-04-28T20:44:07;94247.76;;;5.98;56.66
50696;BME280;36665;51.786;21.594;2023-04-28T20:52:30;94201.36;;;5.85;56.59
50696;BME280;36665;51.786;21.594;2023-04-28T21:00:53;94155.44;;;5.73;56.73
50696;BME280;36665;51.786;21.594;2023-04-28T21:09:16;94128.09;;;5.66;56.44
50696;BME280;36665;51.786;21.594;2023-04-28T21:17:39;94090.11;;;5.57;56.54
50696;BME280;36665;51.786;21.594;2023-04-28T21:26:03;94041.41;;;5.44;56.44
50696;BME280;36665;51.786;21.594;2023-04-28T21:34:26;94006.30;;;5.35;56.50
50696;BME280;36665;51.786;21.594;2023-04-28T21:42:50;93982.53;;;5.28;56.35
50696;BME280;36665;51.786;21.594;2023-04-28T21:51:13;93953.60;;;5.20;56.49
50696;BME280;36665;51.786;21.594;2023-04-28T21:59:36;93939.09;;;5.17;56.53
50696;BME280;36665;51.786;21.594;2023-04-28T22:08:00;93924.94;;;5.14;56.43
50696;BME280;36665;51.786;21.594;2023-04-28T22:16:23;93863.25;;;4.98;56.48
50696;BME280;36665;51.786;21.594;2023-04-28T22:24:47;93798.20;;;4.81;56.34
50696;BME280;36665;51.786;21.594;2023-04-28T22:33:12;93760.21;;;4.70;56.36
50696;BME280;36665;51.786;21.594;2023-04-28T22:41:35;93739.48;;;4.65;56.23
50696;BME280;36665;51.786;21.594;2023-04-28T22:49:58;93716.95;;;4.58;56.08
50696;BME280;36665;51.786;21.594;2023-04-28T22:58:21;93672.11;;;4.47;56.23
50696;BME280;36665;51.786;21.594;2023-04-28T23:06:44;93634.52;;;4.36;55.97
50696;BME280;36665;51.786;21.594;2023-04-28T23:15:07;93615.08;;;4.32;55.98
50696;BME280;36665;51.786;21.594;2023-04-28T23:23:31;93614.52;;;4.31;56.14
50696;BME280;36665;51.786;21.594;2023-04-28T23:31:55;93608.72;;;4.30;56.13
50696;BME280;36665;51.786;21.594;2023-04-28T23:40:18;93621.70;;;4.34;56.02
50696;BME280;36665;51.786;21.594;2023-04-28T23:48:41;93628.53;;;4.36;56.09
50696;BME280;36665;51.786;21.594;2023-04-28T23:57:05;93631.45;;;4.36;56.18
